createdAt,value
2019-05-18T00:01:18.776Z,99473.98
2019-05-18T00:03:47.264Z,99472.02
2019-05-18T00:06:15.648Z,99471.18
2019-05-18T00:08:44.131Z,99474.16
2019-05-18T00:11:14.029Z,99481.65
2019-05-18T00:13:42.430Z,99486.13
2019-05-18T00:16:11.919Z,99486.05
2019-05-18T00:18:40.399Z,99480.73
2019-05-18T00:21:08.813Z,99482.18
2019-05-18T00:23:38.697Z,99478.84
2019-05-18T00:26:07.100Z,99477.34
2019-05-18T00:28:35.526Z,99467.41
2019-05-18T00:31:04.324Z,99471.41
2019-05-18T00:33:34.418Z,99440.52
2019-05-18T00:36:02.797Z,99465.03
2019-05-18T00:38:31.362Z,99464.19
2019-05-18T00:40:59.765Z,99463.67
2019-05-18T00:43:29.624Z,99463.96
2019-05-18T00:45:58.017Z,99456.61
2019-05-18T00:48:26.387Z,99451.92
2019-05-18T00:50:54.898Z,99457.06
2019-05-18T00:53:23.413Z,99455.94
2019-05-18T00:55:51.865Z,99458.88
2019-05-18T00:58:20.240Z,99457.23
2019-05-18T01:00:48.639Z,99458.88
2019-05-18T01:03:17.052Z,99451.98
2019-05-18T01:05:45.492Z,99455.25
2019-05-18T01:08:13.898Z,99459.78
2019-05-18T01:10:43.799Z,99452.56
2019-05-18T01:13:12.836Z,99449.73
2019-05-18T01:15:41.243Z,99451.45
2019-05-18T01:18:09.643Z,99446.75
2019-05-18T01:20:38.503Z,99450.20
2019-05-18T01:23:08.643Z,99443.88
2019-05-18T01:25:37.006Z,99442.91
2019-05-18T01:28:05.529Z,99441.55
2019-05-18T01:30:33.887Z,99429.87
2019-05-18T01:33:02.274Z,99449.83
2019-05-18T01:35:30.885Z,99445.47
2019-05-18T01:37:59.279Z,99443.05
2019-05-18T01:40:27.654Z,99443.36
2019-05-18T01:42:56.072Z,99440.82
2019-05-18T01:45:24.799Z,99442.03
2019-05-18T01:47:53.270Z,99444.67
2019-05-18T01:50:22.126Z,99444.23
2019-05-18T01:52:52.598Z,99441.91
2019-05-18T01:55:21.018Z,99443.66
2019-05-18T01:57:49.661Z,99437.80
2019-05-18T02:00:19.167Z,99438.70
2019-05-18T02:02:47.593Z,99433.38
2019-05-18T02:05:16.874Z,99435.13
2019-05-18T02:07:45.278Z,99434.67
2019-05-18T02:10:13.875Z,99426.47
2019-05-18T02:12:42.294Z,99426.25
2019-05-18T02:15:11.832Z,99423.67
2019-05-18T02:17:40.230Z,99428.44
2019-05-18T02:20:09.839Z,99433.66
2019-05-18T02:22:38.353Z,99437.05
2019-05-18T02:25:07.463Z,99441.55
2019-05-18T02:27:37.713Z,99441.48
2019-05-18T02:30:08.222Z,99438.09
2019-05-18T02:32:36.609Z,99437.95
2019-05-18T02:35:06.721Z,99435.08
2019-05-18T02:37:36.667Z,99440.13
2019-05-18T02:40:06.750Z,99436.73
2019-05-18T02:42:35.341Z,99431.77
2019-05-18T02:45:07.129Z,99430.34
2019-05-18T02:47:35.606Z,99400.52
2019-05-18T02:50:08.991Z,99430.56
2019-05-18T02:52:37.418Z,99430.50
2019-05-18T02:55:07.140Z,99428.81
2019-05-18T02:57:37.059Z,99433.94
2019-05-18T03:00:14.283Z,99433.42
2019-05-18T03:02:42.281Z,99436.42
2019-05-18T03:05:12.222Z,99431.01
2019-05-18T03:07:42.134Z,99422.73
2019-05-18T03:10:11.573Z,99425.08
2019-05-18T03:12:39.934Z,99434.08
2019-05-18T03:15:08.491Z,99429.28
2019-05-18T03:17:36.917Z,99426.80
2019-05-18T03:20:06.939Z,99423.87
2019-05-18T03:22:35.297Z,99433.96
2019-05-18T03:25:10.182Z,99434.61
2019-05-18T03:27:38.569Z,99432.81
2019-05-18T03:30:11.849Z,99437.05
2019-05-18T03:32:40.312Z,99431.92
2019-05-18T03:35:08.879Z,99431.19
2019-05-18T03:37:37.254Z,99429.38
2019-05-18T03:40:08.560Z,99431.64
2019-05-18T03:42:37.010Z,99426.07
2019-05-18T03:45:07.242Z,99431.40
2019-05-18T03:47:35.613Z,99428.44
2019-05-18T03:50:07.398Z,99425.34
2019-05-18T03:52:35.785Z,99402.28
2019-05-18T03:55:05.073Z,99432.31
2019-05-18T03:57:33.423Z,99396.28
2019-05-18T04:00:01.806Z,99425.95
2019-05-18T04:02:33.369Z,99429.94
2019-05-18T04:05:01.739Z,99432.77
2019-05-18T04:07:31.636Z,99438.58
2019-05-18T04:10:00.292Z,99441.19
2019-05-18T04:12:28.730Z,99445.12
2019-05-18T04:14:57.322Z,99446.08
2019-05-18T04:17:25.754Z,99446.75
2019-05-18T04:19:54.280Z,99445.97
2019-05-18T04:22:22.648Z,99450.09
2019-05-18T04:24:51.033Z,99448.22
2019-05-18T04:27:19.428Z,99454.26
2019-05-18T04:29:47.796Z,99464.65
2019-05-18T04:32:16.175Z,99461.45
2019-05-18T04:34:44.566Z,99455.79
2019-05-18T04:37:12.955Z,99450.97
2019-05-18T04:39:41.307Z,99451.31
2019-05-18T04:42:09.687Z,99452.36
2019-05-18T04:44:38.170Z,99459.03
2019-05-18T04:47:06.589Z,99466.13
2019-05-18T04:49:34.936Z,99465.20
2019-05-18T04:52:04.278Z,99472.19
2019-05-18T04:54:33.101Z,99463.91
2019-05-18T04:57:01.503Z,99463.58
2019-05-18T04:59:29.873Z,99470.33
2019-05-18T05:01:58.271Z,99471.82
2019-05-18T05:04:26.905Z,99468.17
2019-05-18T05:06:55.452Z,99471.35
2019-05-18T05:09:23.844Z,99475.30
2019-05-18T05:11:52.234Z,99466.72
2019-05-18T05:14:20.769Z,99462.81
2019-05-18T05:16:49.216Z,99461.08
2019-05-18T05:19:17.629Z,99471.61
2019-05-18T05:21:46.016Z,99472.86
2019-05-18T05:24:14.418Z,99472.52
2019-05-18T05:26:42.890Z,99480.52
2019-05-18T05:29:11.338Z,99471.08
2019-05-18T05:31:39.924Z,99474.97
2019-05-18T05:34:08.288Z,99470.09
2019-05-18T05:36:38.363Z,99474.57
2019-05-18T05:39:06.962Z,99473.85
2019-05-18T05:41:36.857Z,99475.37
2019-05-18T05:44:05.368Z,99478.77
2019-05-18T05:46:37.240Z,99472.09
2019-05-18T05:49:05.921Z,99479.39
2019-05-18T05:51:34.283Z,99457.86
2019-05-18T05:54:04.161Z,99477.08
2019-05-18T05:56:32.599Z,99479.62
2019-05-18T05:59:01.044Z,99483.61
2019-05-18T06:01:29.419Z,99485.36
2019-05-18T06:03:59.347Z,99487.91
2019-05-18T06:06:27.883Z,99492.90
2019-05-18T06:08:56.279Z,99491.92
2019-05-18T06:11:24.686Z,99493.07
2019-05-18T06:13:53.073Z,99492.30
2019-05-18T06:16:24.482Z,99490.47
2019-05-18T06:18:53.238Z,99490.78
2019-05-18T06:21:21.662Z,99496.55
2019-05-18T06:23:50.038Z,99499.45
2019-05-18T06:26:18.419Z,99502.98
2019-05-18T06:28:46.805Z,99504.84
2019-05-18T06:31:15.207Z,99507.19
2019-05-18T06:33:43.574Z,99492.41
2019-05-18T06:36:12.059Z,99495.73
2019-05-18T06:38:40.481Z,99495.73
2019-05-18T06:41:10.446Z,99492.78
2019-05-18T06:43:40.443Z,99500.53
2019-05-18T06:46:11.703Z,99501.78
2019-05-18T06:48:41.576Z,99499.44
2019-05-18T06:51:10.312Z,99505.23
2019-05-18T06:53:38.692Z,99510.83
2019-05-18T06:56:07.403Z,99514.55
2019-05-18T06:58:36.296Z,99508.97
2019-05-18T07:01:06.184Z,99510.91
2019-05-18T07:03:34.587Z,99518.04
2019-05-18T07:06:02.946Z,99519.27
2019-05-18T07:08:31.346Z,99515.85
2019-05-18T07:10:59.919Z,99506.08
2019-05-18T07:13:29.097Z,99517.33
2019-05-18T07:15:58.973Z,99516.14
2019-05-18T07:18:27.338Z,99516.88
2019-05-18T07:20:55.724Z,99501.35
2019-05-18T07:23:25.312Z,99521.73
2019-05-18T07:25:53.730Z,99521.56
2019-05-18T07:28:23.638Z,99521.56
2019-05-18T07:30:52.012Z,99513.89
2019-05-18T07:33:20.454Z,99511.41
2019-05-18T07:35:48.951Z,99513.39
2019-05-18T07:38:18.826Z,99507.38
2019-05-18T07:40:48.809Z,99502.50
2019-05-18T07:43:17.282Z,99503.92
2019-05-18T07:45:45.648Z,99503.98
2019-05-18T07:48:14.025Z,99509.48
2019-05-18T07:50:42.466Z,99505.36
2019-05-18T07:53:10.818Z,99504.52
2019-05-18T07:55:40.052Z,99497.66
2019-05-18T07:58:08.788Z,99506.46
2019-05-18T08:00:37.166Z,99502.07
2019-05-18T08:03:05.536Z,99508.94
2019-05-18T08:05:39.826Z,99507.29
2019-05-18T08:08:08.202Z,99508.38
2019-05-18T08:10:38.298Z,99511.11
2019-05-18T08:13:07.446Z,99503.17
2019-05-18T08:15:37.155Z,99508.39
2019-05-18T08:18:05.803Z,99507.56
2019-05-18T08:20:34.254Z,99509.72
2019-05-18T08:23:02.642Z,99513.30
2019-05-18T08:25:31.121Z,99515.48
2019-05-18T08:27:59.514Z,99514.47
2019-05-18T08:30:27.907Z,99516.33
2019-05-18T08:32:56.321Z,99515.56
2019-05-18T08:35:27.153Z,99515.34
2019-05-18T08:37:54.965Z,99515.85
2019-05-18T08:40:23.366Z,99506.73
2019-05-18T08:42:51.761Z,99500.84
2019-05-18T08:45:21.178Z,99498.09
2019-05-18T08:47:49.609Z,99508.23
2019-05-18T08:50:20.496Z,99502.63
2019-05-18T08:52:48.444Z,99498.53
2019-05-18T08:55:16.895Z,99503.02
2019-05-18T08:57:45.321Z,99504.94
2019-05-18T09:00:15.361Z,99502.31
2019-05-18T09:02:43.857Z,99499.81
2019-05-18T09:05:12.463Z,99496.00
2019-05-18T09:07:40.985Z,99502.43
2019-05-18T09:10:09.604Z,99506.14
2019-05-18T09:12:38.078Z,99497.16
2019-05-18T09:15:08.103Z,99498.53
2019-05-18T09:17:36.496Z,99499.09
2019-05-18T09:20:08.258Z,99510.19
2019-05-18T09:22:36.706Z,99503.89
2019-05-18T09:25:06.747Z,99496.55
2019-05-18T09:27:36.229Z,99495.58
2019-05-18T09:30:09.500Z,99492.36
2019-05-18T09:32:38.502Z,99496.08
2019-05-18T09:35:07.948Z,99491.20
2019-05-18T09:37:36.427Z,99489.22
2019-05-18T09:40:07.587Z,99489.83
2019-05-18T09:42:36.233Z,99487.97
2019-05-18T09:45:08.236Z,99494.72
2019-05-18T09:47:39.550Z,99494.43
2019-05-18T09:50:09.611Z,99488.73
2019-05-18T09:52:46.273Z,99487.21
2019-05-18T09:55:09.405Z,99487.95
2019-05-18T09:57:37.807Z,99482.08
2019-05-18T10:00:11.505Z,99485.27
2019-05-18T10:02:40.903Z,99480.17
2019-05-18T10:05:10.947Z,99484.94
2019-05-18T10:07:39.375Z,99480.81
2019-05-18T10:10:08.821Z,99482.51
2019-05-18T10:12:37.408Z,99484.81
2019-05-18T10:15:07.549Z,99474.19
2019-05-18T10:17:35.936Z,99475.23
2019-05-18T10:20:10.285Z,99471.85
2019-05-18T10:22:53.395Z,99477.11
2019-05-18T10:25:09.719Z,99475.86
2019-05-18T10:27:40.448Z,99472.85
2019-05-18T10:30:10.393Z,99476.11
2019-05-18T10:32:38.771Z,99479.77
2019-05-18T10:35:07.720Z,99477.28
2019-05-18T10:37:36.088Z,99468.37
2019-05-18T10:40:09.531Z,99468.56
2019-05-18T10:42:37.905Z,99470.25
2019-05-18T10:45:08.044Z,99466.01
2019-05-18T10:47:38.301Z,99466.50
2019-05-18T10:50:07.932Z,99462.02
2019-05-18T10:52:36.330Z,99464.62
2019-05-18T10:55:07.098Z,99458.66
2019-05-18T10:57:35.568Z,99461.67
2019-05-18T11:00:09.525Z,99463.55
2019-05-18T11:02:37.907Z,99441.41
2019-05-18T11:05:07.239Z,99455.46
2019-05-18T11:07:37.146Z,99452.83
2019-05-18T11:10:10.519Z,99452.27
2019-05-18T11:12:38.899Z,99451.03
2019-05-18T11:15:09.144Z,99459.32
2019-05-18T11:17:40.369Z,99461.98
2019-05-18T11:20:10.498Z,99453.34
2019-05-18T11:22:38.972Z,99445.90
2019-05-18T11:25:19.378Z,99440.31
2019-05-18T11:27:47.758Z,99440.47
2019-05-18T11:30:16.826Z,99437.59
2019-05-18T11:32:45.379Z,99439.05
2019-05-18T11:35:17.315Z,99436.33
2019-05-18T11:37:45.742Z,99429.53
2019-05-18T11:40:14.481Z,99426.97
2019-05-18T11:42:44.632Z,99421.44
2019-05-18T11:45:22.294Z,99425.64
2019-05-18T11:47:53.216Z,99424.86
2019-05-18T11:50:21.856Z,99422.08
2019-05-18T11:52:50.205Z,99420.42
2019-05-18T11:55:20.150Z,99414.44
2019-05-18T11:57:48.548Z,99422.89
2019-05-18T12:00:17.695Z,99422.45
2019-05-18T12:02:46.130Z,99418.28
2019-05-18T12:05:17.293Z,99418.77
2019-05-18T12:07:47.146Z,99421.45
2019-05-18T12:10:18.501Z,99412.61
2019-05-18T12:12:46.941Z,99413.58
2019-05-18T12:15:17.006Z,99415.59
2019-05-18T12:17:45.513Z,99405.25
2019-05-18T12:20:15.250Z,99406.22
2019-05-18T12:22:43.623Z,99404.45
2019-05-18T12:25:13.600Z,99402.73
2019-05-18T12:27:42.092Z,99397.30
2019-05-18T12:30:11.497Z,99397.56
2019-05-18T12:32:41.379Z,99399.55
2019-05-18T12:35:14.698Z,99390.60
2019-05-18T12:37:44.961Z,99386.72
2019-05-18T12:40:16.380Z,99386.70
2019-05-18T12:42:46.268Z,99394.95
2019-05-18T12:45:15.418Z,99383.33
2019-05-18T12:47:43.841Z,99378.36
2019-05-18T12:50:14.142Z,99389.13
2019-05-18T12:52:42.742Z,99378.97
2019-05-18T12:55:11.714Z,99381.84
2019-05-18T12:57:40.274Z,99368.98
2019-05-18T13:00:14.316Z,99377.22
2019-05-18T13:02:44.294Z,99374.19
2019-05-18T13:05:13.079Z,99368.47
2019-05-18T13:07:41.475Z,99368.61
2019-05-18T13:10:11.450Z,99366.88
2019-05-18T13:12:39.852Z,99363.96
2019-05-18T13:15:10.970Z,99369.64
2019-05-18T13:17:39.432Z,99368.98
2019-05-18T13:20:10.423Z,99367.70
2019-05-18T13:22:39.036Z,99369.66
2019-05-18T13:25:08.475Z,99360.33
2019-05-18T13:27:39.958Z,99362.95
2019-05-18T13:30:10.453Z,99364.34
2019-05-18T13:32:39.419Z,99365.22
2019-05-18T13:35:07.958Z,99360.42
2019-05-18T13:37:36.352Z,99361.39
2019-05-18T13:40:07.068Z,99351.02
2019-05-18T13:42:35.487Z,99345.20
2019-05-18T13:45:07.362Z,99346.25
2019-05-18T13:47:35.732Z,99335.31
2019-05-18T13:50:04.747Z,99336.02
2019-05-18T13:52:34.991Z,99334.78
2019-05-18T13:55:11.302Z,99332.77
2019-05-18T13:57:39.692Z,99315.86
2019-05-18T14:00:09.288Z,99327.67
2019-05-18T14:02:37.681Z,99338.80
2019-05-18T14:05:07.466Z,99330.73
2019-05-18T14:07:35.920Z,99324.55
2019-05-18T14:10:06.739Z,99326.34
2019-05-18T14:12:35.113Z,99319.06
2019-05-18T14:15:08.491Z,99317.72
2019-05-18T14:17:38.525Z,99314.77
2019-05-18T14:20:07.583Z,99318.77
2019-05-18T14:22:35.951Z,99316.70
2019-05-18T14:25:18.870Z,99311.12
2019-05-18T14:27:37.537Z,99307.74
2019-05-18T14:30:07.482Z,99312.12
2019-05-18T14:32:35.903Z,99311.48
2019-05-18T14:35:07.613Z,99308.45
2019-05-18T14:37:35.989Z,99314.75
2019-05-18T14:40:09.594Z,99309.89
2019-05-18T14:42:38.407Z,99315.14
2019-05-18T14:45:08.237Z,99306.09
2019-05-18T14:47:37.185Z,99299.50
2019-05-18T14:50:07.512Z,99297.34
2019-05-18T14:52:36.337Z,99300.87
2019-05-18T14:55:07.795Z,99303.59
2019-05-18T14:57:36.347Z,99314.39
2019-05-18T15:00:07.093Z,99322.06
2019-05-18T15:02:35.451Z,99329.02
2019-05-18T15:05:07.290Z,99357.80
2019-05-18T15:07:35.718Z,99357.26
2019-05-18T15:10:06.890Z,99347.02
2019-05-18T15:12:35.541Z,99337.05
2019-05-18T15:15:09.062Z,99351.13
2019-05-18T15:17:37.607Z,99341.58
2019-05-18T15:20:07.440Z,99339.78
2019-05-18T15:22:35.893Z,99340.39
2019-05-18T15:25:05.306Z,99336.31
2019-05-18T15:27:33.715Z,99337.89
2019-05-18T15:30:02.293Z,99340.11
2019-05-18T15:32:33.760Z,99342.58
2019-05-18T15:35:02.190Z,99340.86
2019-05-18T15:37:31.265Z,99338.32
2019-05-18T15:39:59.803Z,99339.31
2019-05-18T15:42:28.670Z,99335.80
2019-05-18T15:44:57.101Z,99330.92
2019-05-18T15:47:26.783Z,99323.54
2019-05-18T15:49:55.118Z,99333.20
2019-05-18T15:52:23.728Z,99332.11
2019-05-18T15:54:52.096Z,99336.00
2019-05-18T15:57:20.522Z,99337.87
2019-05-18T15:59:48.928Z,99335.55
2019-05-18T16:02:17.309Z,99343.81
2019-05-18T16:04:45.775Z,99346.05
2019-05-18T16:07:14.168Z,99366.88
2019-05-18T16:09:42.635Z,99362.97
2019-05-18T16:12:11.046Z,99360.61
2019-05-18T16:14:39.680Z,99367.02
2019-05-18T16:17:08.160Z,99355.13
2019-05-18T16:19:36.600Z,99355.37
2019-05-18T16:22:06.854Z,99345.13
2019-05-18T16:24:35.360Z,99353.12
2019-05-18T16:27:04.644Z,99349.88
2019-05-18T16:29:33.090Z,99356.48
2019-05-18T16:32:01.499Z,99355.13
2019-05-18T16:34:29.888Z,99357.06
2019-05-18T16:37:00.710Z,99331.92
2019-05-18T16:39:28.452Z,99362.37
2019-05-18T16:41:56.850Z,99357.74
2019-05-18T16:44:25.328Z,99357.50
2019-05-18T16:46:55.027Z,99360.00
2019-05-18T16:49:23.450Z,99358.38
2019-05-18T16:51:51.938Z,99358.13
2019-05-18T16:54:20.623Z,99354.84
2019-05-18T16:56:49.026Z,99363.86
2019-05-18T16:59:17.795Z,99367.18
2019-05-18T17:01:46.160Z,99372.38
2019-05-18T17:04:14.889Z,99363.64
2019-05-18T17:06:43.418Z,99369.12
2019-05-18T17:09:15.969Z,99383.95
2019-05-18T17:11:47.876Z,99375.48
2019-05-18T17:14:14.681Z,99387.03
2019-05-18T17:16:43.152Z,99380.50
2019-05-18T17:19:11.649Z,99378.64
2019-05-18T17:21:40.217Z,99378.38
2019-05-18T17:24:08.657Z,99377.29
2019-05-18T17:26:51.507Z,99378.36
2019-05-18T17:29:07.245Z,99374.55
2019-05-18T17:31:35.620Z,99379.20
2019-05-18T17:34:06.105Z,99379.20
2019-05-18T17:36:34.501Z,99380.55
2019-05-18T17:39:03.014Z,99391.52
2019-05-18T17:41:33.039Z,99383.84
2019-05-18T17:44:01.451Z,99378.91
2019-05-18T17:46:29.825Z,99384.40
2019-05-18T17:49:01.038Z,99377.27
2019-05-18T17:51:31.033Z,99375.34
2019-05-18T17:53:59.487Z,99372.84
2019-05-18T17:56:30.384Z,99390.09
2019-05-18T17:58:58.190Z,99379.67
2019-05-18T18:01:26.561Z,99386.22
2019-05-18T18:03:55.066Z,99391.33
2019-05-18T18:06:25.099Z,99389.69
2019-05-18T18:08:53.475Z,99396.45
2019-05-18T18:11:22.053Z,99416.39
2019-05-18T18:13:50.513Z,99434.91
2019-05-18T18:16:18.909Z,99434.31
2019-05-18T18:18:47.318Z,99438.66
2019-05-18T18:21:16.721Z,99441.60
2019-05-18T18:23:52.806Z,99451.95
2019-05-18T18:26:15.337Z,99458.45
2019-05-18T18:28:43.720Z,99467.98
2019-05-18T18:31:12.248Z,99476.38
2019-05-18T18:33:40.716Z,99475.98
2019-05-18T18:36:09.437Z,99464.03
2019-05-18T18:38:38.149Z,99470.42
2019-05-18T18:41:06.813Z,99479.16
2019-05-18T18:43:35.186Z,99483.50
2019-05-18T18:46:06.453Z,99483.73
2019-05-18T18:48:34.956Z,99449.64
2019-05-18T18:51:06.356Z,99480.39
2019-05-18T18:53:34.729Z,99445.45
2019-05-18T18:56:03.108Z,99470.77
2019-05-18T18:58:31.629Z,99453.73
2019-05-18T19:01:00.494Z,99460.80
2019-05-18T19:03:28.962Z,99476.94
2019-05-18T19:05:57.386Z,99474.39
2019-05-18T19:08:25.988Z,99471.09
2019-05-18T19:10:54.378Z,99463.36
2019-05-18T19:13:22.932Z,99449.22
2019-05-18T19:15:51.403Z,99467.89
2019-05-18T19:18:19.838Z,99466.45
2019-05-18T19:20:48.283Z,99463.17
2019-05-18T19:23:16.957Z,99460.45
2019-05-18T19:25:45.324Z,99459.59
2019-05-18T19:28:13.724Z,99460.67
2019-05-18T19:30:42.112Z,99457.09
2019-05-18T19:33:10.546Z,99462.80
2019-05-18T19:35:40.659Z,99462.75
2019-05-18T19:38:09.076Z,99455.90
2019-05-18T19:40:37.586Z,99461.61
2019-05-18T19:43:06.181Z,99464.03
2019-05-18T19:45:34.584Z,99466.44
2019-05-18T19:48:03.011Z,99475.42
2019-05-18T19:50:31.541Z,99479.97
2019-05-18T19:53:02.920Z,99492.19
2019-05-18T19:55:31.273Z,99496.72
2019-05-18T19:58:08.543Z,99506.48
2019-05-18T20:00:31.501Z,99508.34
2019-05-18T20:03:01.453Z,99514.30
2019-05-18T20:05:29.834Z,99517.28
2019-05-18T20:07:58.276Z,99526.35
2019-05-18T20:10:27.247Z,99517.73
2019-05-18T20:12:57.291Z,99517.88
2019-05-18T20:15:25.623Z,99523.98
2019-05-18T20:17:54.043Z,99514.18
2019-05-18T20:20:22.560Z,99516.62
2019-05-18T20:22:50.995Z,99498.92
2019-05-18T20:25:19.367Z,99521.97
2019-05-18T20:27:47.755Z,99527.15
2019-05-18T20:30:16.318Z,99518.47
2019-05-18T20:32:44.803Z,99513.31
2019-05-18T20:35:14.048Z,99510.56
2019-05-18T20:37:42.423Z,99509.95
2019-05-18T20:40:11.056Z,99517.58
2019-05-18T20:42:39.439Z,99516.77
2019-05-18T20:45:10.893Z,99514.34
2019-05-18T20:47:39.555Z,99513.26
2019-05-18T20:50:08.950Z,99504.80
2019-05-18T20:52:37.657Z,99515.18
2019-05-18T20:55:06.242Z,99510.25
2019-05-18T20:57:34.624Z,99506.66
2019-05-18T21:00:03.080Z,99507.63
2019-05-18T21:02:31.514Z,99507.35
2019-05-18T21:04:59.957Z,99498.00
2019-05-18T21:07:28.499Z,99495.33
2019-05-18T21:09:56.956Z,99492.05
2019-05-18T21:12:25.337Z,99489.87
2019-05-18T21:14:54.252Z,99489.54
2019-05-18T21:17:22.713Z,99488.70
2019-05-18T21:19:52.601Z,99490.28
2019-05-18T21:22:21.010Z,99492.98
2019-05-18T21:24:49.461Z,99487.25
2019-05-18T21:27:17.943Z,99489.39
2019-05-18T21:29:47.900Z,99485.02
2019-05-18T21:32:19.262Z,99486.30
2019-05-18T21:34:47.683Z,99489.02
2019-05-18T21:37:16.170Z,99493.61
2019-05-18T21:39:44.556Z,99488.47
2019-05-18T21:42:14.523Z,99492.56
2019-05-18T21:44:42.984Z,99484.94
2019-05-18T21:47:11.383Z,99493.98
2019-05-18T21:49:39.803Z,99490.48
2019-05-18T21:52:08.289Z,99492.12
2019-05-18T21:54:38.201Z,99488.11
2019-05-18T21:57:06.622Z,99486.53
2019-05-18T21:59:36.688Z,99487.90
2019-05-18T22:02:05.345Z,99483.80
2019-05-18T22:04:36.873Z,99481.83
2019-05-18T22:07:05.257Z,99472.50
2019-05-18T22:09:33.737Z,99474.39
2019-05-18T22:12:02.134Z,99475.70
2019-05-18T22:14:30.521Z,99473.97
2019-05-18T22:17:01.970Z,99465.95
2019-05-18T22:19:32.199Z,99467.56
2019-05-18T22:22:00.579Z,99469.98
2019-05-18T22:24:28.960Z,99461.45
2019-05-18T22:26:57.914Z,99465.02
2019-05-18T22:29:26.460Z,99460.34
2019-05-18T22:31:57.532Z,99454.86
2019-05-18T22:34:25.937Z,99458.14
2019-05-18T22:36:54.422Z,99452.63
2019-05-18T22:39:26.659Z,99443.34
2019-05-18T22:41:54.637Z,99450.71
2019-05-18T22:44:23.075Z,99445.20
2019-05-18T22:46:51.437Z,99445.76
2019-05-18T22:49:19.820Z,99446.84
2019-05-18T22:51:48.240Z,99446.22
2019-05-18T22:54:16.913Z,99447.52
2019-05-18T22:56:45.274Z,99447.23
2019-05-18T22:59:13.761Z,99445.32
2019-05-18T23:01:42.198Z,99447.20
2019-05-18T23:04:10.851Z,99444.73
2019-05-18T23:06:39.282Z,99447.20
2019-05-18T23:09:07.860Z,99436.55
2019-05-18T23:11:36.301Z,99433.48
2019-05-18T23:14:04.783Z,99427.48
2019-05-18T23:16:33.155Z,99424.73
2019-05-18T23:19:01.556Z,99422.19
2019-05-18T23:21:29.930Z,99428.96
2019-05-18T23:23:59.284Z,99423.97
2019-05-18T23:26:27.807Z,99432.36
2019-05-18T23:28:56.289Z,99436.34
2019-05-18T23:31:26.171Z,99433.06
2019-05-18T23:33:54.561Z,99431.98
2019-05-18T23:36:22.941Z,99420.49
2019-05-18T23:38:51.339Z,99420.49
2019-05-18T23:41:19.702Z,99422.90
2019-05-18T23:43:48.372Z,99419.55
2019-05-18T23:46:18.280Z,99416.27
2019-05-18T23:48:48.186Z,99414.52
2019-05-18T23:51:16.624Z,99418.43
2019-05-18T23:53:44.996Z,99408.87
2019-05-18T23:56:13.390Z,99402.03
2019-05-18T23:58:41.793Z,99403.32
